sensor_id;sensor_type;location;lat;lon;timestamp;pressure;altitude;pressure_sealevel;temperature;humidity
19510;BME280;9896;42.486;26.506;2023-04-15T00:00:14;99128.81;;;13.19;100.00
19510;BME280;9896;42.486;26.506;2023-04-15T00:02:41;99144.25;;;13.24;100.00
19510;BME280;9896;42.486;26.506;2023-04-15T00:05:07;99152.47;;;13.05;100.00
19510;BME280;9896;42.486;26.506;2023-04-15T00:07:32;99152.53;;;12.94;100.00
19510;BME280;9896;42.486;26.506;2023-04-15T00:09:58;99127.44;;;12.77;100.00
19510;BME280;9896;42.486;26.506;2023-04-15T00:12:25;99146.16;;;12.72;100.00
19510;BME280;9896;42.486;26.506;2023-04-15T00:14:51;99134.94;;;12.75;100.00
19510;BME280;9896;42.486;26.506;2023-04-15T00:17:17;99136.22;;;12.72;100.00
19510;BME280;9896;42.486;26.506;2023-04-15T00:19:42;99125.00;;;12.64;100.00
19510;BME280;9896;42.486;26.506;2023-04-15T00:22:11;99141.41;;;12.62;100.00
19510;BME280;9896;42.486;26.506;2023-04-15T00:24:37;99134.31;;;12.44;100.00
19510;BME280;9896;42.486;26.506;2023-04-15T00:27:03;99137.66;;;12.51;100.00
19510;BME280;9896;42.486;26.506;2023-04-15T00:29:29;99144.53;;;12.71;100.00
19510;BME280;9896;42.486;26.506;2023-04-15T00:31:55;99137.81;;;12.45;100.00
19510;BME280;9896;42.486;26.506;2023-04-15T00:34:24;99134.28;;;12.56;100.00
19510;BME280;9896;42.486;26.506;2023-04-15T00:36:50;99126.19;;;12.56;100.00
19510;BME280;9896;42.486;26.506;2023-04-15T00:39:16;99133.81;;;12.59;100.00
19510;BME280;9896;42.486;26.506;2023-04-15T00:41:43;99125.03;;;12.52;100.00
19510;BME280;9896;42.486;26.506;2023-04-15T00:44:09;99136.13;;;12.55;100.00
19510;BME280;9896;42.486;26.506;2023-04-15T00:46:36;99133.03;;;12.47;100.00
19510;BME280;9896;42.486;26.506;2023-04-15T00:49:06;99134.59;;;12.71;100.00
19510;BME280;9896;42.486;26.506;2023-04-15T00:51:34;99136.81;;;12.74;100.00
19510;BME280;9896;42.486;26.506;2023-04-15T00:54:02;99134.78;;;12.41;100.00
19510;BME280;9896;42.486;26.506;2023-04-15T00:56:28;99132.47;;;12.33;100.00
19510;BME280;9896;42.486;26.506;2023-04-15T00:58:54;99124.00;;;12.53;100.00
19510;BME280;9896;42.486;26.506;2023-04-15T01:01:21;99125.66;;;12.42;100.00
19510;BME280;9896;42.486;26.506;2023-04-15T01:03:48;99127.44;;;12.25;100.00
19510;BME280;9896;42.486;26.506;2023-04-15T01:06:14;99114.00;;;12.25;100.00
19510;BME280;9896;42.486;26.506;2023-04-15T01:08:41;99129.41;;;12.41;100.00
19510;BME280;9896;42.486;26.506;2023-04-15T01:11:06;99130.34;;;12.35;100.00
19510;BME280;9896;42.486;26.506;2023-04-15T01:13:33;99128.38;;;12.31;100.00
19510;BME280;9896;42.486;26.506;2023-04-15T01:15:59;99121.13;;;12.20;100.00
19510;BME280;9896;42.486;26.506;2023-04-15T01:18:27;99129.88;;;12.27;100.00
19510;BME280;9896;42.486;26.506;2023-04-15T01:20:53;99141.09;;;12.24;100.00
19510;BME280;9896;42.486;26.506;2023-04-15T01:23:20;99135.97;;;12.34;100.00
19510;BME280;9896;42.486;26.506;2023-04-15T01:25:46;99152.44;;;12.37;100.00
19510;BME280;9896;42.486;26.506;2023-04-15T01:28:13;99151.13;;;12.40;100.00
19510;BME280;9896;42.486;26.506;2023-04-15T01:30:39;99144.59;;;12.36;100.00
19510;BME280;9896;42.486;26.506;2023-04-15T01:33:04;99121.94;;;12.20;100.00
19510;BME280;9896;42.486;26.506;2023-04-15T01:35:30;99121.38;;;12.06;100.00
19510;BME280;9896;42.486;26.506;2023-04-15T01:38:04;99109.03;;;11.94;100.00
19510;BME280;9896;42.486;26.506;2023-04-15T01:40:30;99132.25;;;12.11;100.00
19510;BME280;9896;42.486;26.506;2023-04-15T01:42:56;99156.06;;;12.20;100.00
19510;BME280;9896;42.486;26.506;2023-04-15T01:45:21;99155.97;;;12.26;100.00
19510;BME280;9896;42.486;26.506;2023-04-15T01:47:47;99162.25;;;12.32;100.00
19510;BME280;9896;42.486;26.506;2023-04-15T01:50:13;99165.63;;;12.50;100.00
19510;BME280;9896;42.486;26.506;2023-04-15T01:52:39;99161.19;;;12.44;100.00
19510;BME280;9896;42.486;26.506;2023-04-15T01:55:06;99141.72;;;12.14;100.00
19510;BME280;9896;42.486;26.506;2023-04-15T01:57:33;99138.22;;;12.14;100.00
19510;BME280;9896;42.486;26.506;2023-04-15T01:59:59;99144.41;;;12.14;100.00
19510;BME280;9896;42.486;26.506;2023-04-15T02:02:24;99150.84;;;12.01;100.00
19510;BME280;9896;42.486;26.506;2023-04-15T02:04:50;99166.22;;;11.94;100.00
19510;BME280;9896;42.486;26.506;2023-04-15T02:07:15;99195.22;;;12.04;100.00
19510;BME280;9896;42.486;26.506;2023-04-15T02:09:40;99184.47;;;11.92;100.00
19510;BME280;9896;42.486;26.506;2023-04-15T02:12:08;99151.75;;;11.72;100.00
19510;BME280;9896;42.486;26.506;2023-04-15T02:14:33;99135.59;;;11.60;100.00
19510;BME280;9896;42.486;26.506;2023-04-15T02:16:59;99160.88;;;11.41;100.00
19510;BME280;9896;42.486;26.506;2023-04-15T02:19:31;99174.78;;;11.50;100.00
19510;BME280;9896;42.486;26.506;2023-04-15T02:21:57;99168.22;;;11.34;100.00
19510;BME280;9896;42.486;26.506;2023-04-15T02:24:22;99155.38;;;11.25;100.00
19510;BME280;9896;42.486;26.506;2023-04-15T02:26:48;99163.22;;;11.08;100.00
19510;BME280;9896;42.486;26.506;2023-04-15T02:29:13;99177.59;;;11.13;100.00
19510;BME280;9896;42.486;26.506;2023-04-15T02:31:39;99182.56;;;11.28;100.00
19510;BME280;9896;42.486;26.506;2023-04-15T02:34:06;99163.63;;;11.23;100.00
19510;BME280;9896;42.486;26.506;2023-04-15T02:36:32;99170.72;;;11.17;100.00
19510;BME280;9896;42.486;26.506;2023-04-15T02:38:59;99161.28;;;11.15;100.00
19510;BME280;9896;42.486;26.506;2023-04-15T02:41:24;99154.03;;;11.15;100.00
19510;BME280;9896;42.486;26.506;2023-04-15T02:43:52;99168.63;;;11.19;100.00
19510;BME280;9896;42.486;26.506;2023-04-15T02:46:18;99179.69;;;11.11;100.00
19510;BME280;9896;42.486;26.506;2023-04-15T02:48:43;99181.34;;;11.12;100.00
19510;BME280;9896;42.486;26.506;2023-04-15T02:51:19;99179.00;;;11.16;100.00
19510;BME280;9896;42.486;26.506;2023-04-15T02:53:46;99179.91;;;11.10;100.00
19510;BME280;9896;42.486;26.506;2023-04-15T02:56:12;99178.97;;;11.04;100.00
19510;BME280;9896;42.486;26.506;2023-04-15T02:58:39;99188.28;;;11.02;100.00
19510;BME280;9896;42.486;26.506;2023-04-15T03:01:05;99190.13;;;11.01;100.00
19510;BME280;9896;42.486;26.506;2023-04-15T03:03:31;99188.41;;;11.07;100.00
19510;BME280;9896;42.486;26.506;2023-04-15T03:05:57;99170.41;;;10.96;100.00
19510;BME280;9896;42.486;26.506;2023-04-15T03:08:22;99185.72;;;11.07;100.00
19510;BME280;9896;42.486;26.506;2023-04-15T03:10:48;99194.25;;;10.86;100.00
19510;BME280;9896;42.486;26.506;2023-04-15T03:13:13;99188.44;;;10.89;100.00
19510;BME280;9896;42.486;26.506;2023-04-15T03:15:39;99181.16;;;10.96;100.00
19510;BME280;9896;42.486;26.506;2023-04-15T03:18:04;99174.13;;;10.95;100.00
19510;BME280;9896;42.486;26.506;2023-04-15T03:20:30;99179.22;;;11.14;100.00
19510;BME280;9896;42.486;26.506;2023-04-15T03:22:55;99188.97;;;11.27;100.00
19510;BME280;9896;42.486;26.506;2023-04-15T03:25:21;99187.41;;;11.19;100.00
19510;BME280;9896;42.486;26.506;2023-04-15T03:27:46;99181.28;;;11.31;100.00
19510;BME280;9896;42.486;26.506;2023-04-15T03:30:12;99179.03;;;11.28;100.00
19510;BME280;9896;42.486;26.506;2023-04-15T03:32:38;99181.16;;;11.37;100.00
19510;BME280;9896;42.486;26.506;2023-04-15T03:35:04;99188.84;;;11.34;100.00
19510;BME280;9896;42.486;26.506;2023-04-15T03:37:29;99182.94;;;11.43;100.00
19510;BME280;9896;42.486;26.506;2023-04-15T03:39:55;99190.06;;;11.49;100.00
19510;BME280;9896;42.486;26.506;2023-04-15T03:42:20;99185.63;;;11.43;100.00
19510;BME280;9896;42.486;26.506;2023-04-15T03:44:46;99178.97;;;11.46;100.00
19510;BME280;9896;42.486;26.506;2023-04-15T03:47:11;99173.25;;;11.42;100.00
19510;BME280;9896;42.486;26.506;2023-04-15T03:49:37;99175.00;;;11.37;100.00
19510;BME280;9896;42.486;26.506;2023-04-15T03:52:02;99183.75;;;11.44;100.00
19510;BME280;9896;42.486;26.506;2023-04-15T03:54:28;99187.50;;;11.43;100.00
19510;BME280;9896;42.486;26.506;2023-04-15T03:56:53;99195.69;;;11.48;100.00
19510;BME280;9896;42.486;26.506;2023-04-15T03:59:18;99202.78;;;11.42;100.00
19510;BME280;9896;42.486;26.506;2023-04-15T04:01:44;99197.66;;;11.41;100.00
19510;BME280;9896;42.486;26.506;2023-04-15T04:04:09;99203.38;;;11.44;100.00
19510;BME280;9896;42.486;26.506;2023-04-15T04:06:35;99213.38;;;11.37;100.00
19510;BME280;9896;42.486;26.506;2023-04-15T04:09:01;99207.75;;;11.27;100.00
19510;BME280;9896;42.486;26.506;2023-04-15T04:11:26;99234.78;;;11.26;100.00
19510;BME280;9896;42.486;26.506;2023-04-15T04:13:52;99237.31;;;11.39;100.00
19510;BME280;9896;42.486;26.506;2023-04-15T04:16:18;99238.66;;;11.30;100.00
19510;BME280;9896;42.486;26.506;2023-04-15T04:18:44;99226.78;;;11.37;100.00
19510;BME280;9896;42.486;26.506;2023-04-15T04:21:09;99222.84;;;11.40;100.00
19510;BME280;9896;42.486;26.506;2023-04-15T04:23:35;99223.13;;;11.20;100.00
19510;BME280;9896;42.486;26.506;2023-04-15T04:26:00;99212.44;;;11.32;100.00
19510;BME280;9896;42.486;26.506;2023-04-15T04:28:26;99218.69;;;11.26;100.00
19510;BME280;9896;42.486;26.506;2023-04-15T04:30:52;99227.00;;;11.24;100.00
19510;BME280;9896;42.486;26.506;2023-04-15T04:33:17;99225.81;;;11.20;100.00
19510;BME280;9896;42.486;26.506;2023-04-15T04:35:43;99223.13;;;11.20;100.00
19510;BME280;9896;42.486;26.506;2023-04-15T04:38:09;99224.94;;;11.08;100.00
19510;BME280;9896;42.486;26.506;2023-04-15T04:40:34;99218.66;;;11.14;100.00
19510;BME280;9896;42.486;26.506;2023-04-15T04:43:00;99216.69;;;11.21;100.00
19510;BME280;9896;42.486;26.506;2023-04-15T04:45:25;99219.97;;;11.23;100.00
19510;BME280;9896;42.486;26.506;2023-04-15T04:47:51;99202.56;;;11.14;100.00
19510;BME280;9896;42.486;26.506;2023-04-15T04:50:16;99209.09;;;11.18;100.00
19510;BME280;9896;42.486;26.506;2023-04-15T04:52:42;99204.25;;;11.27;100.00
19510;BME280;9896;42.486;26.506;2023-04-15T04:55:08;99217.88;;;11.25;100.00
19510;BME280;9896;42.486;26.506;2023-04-15T04:57:33;99226.91;;;11.31;100.00
19510;BME280;9896;42.486;26.506;2023-04-15T05:00:04;99227.81;;;11.25;100.00
19510;BME280;9896;42.486;26.506;2023-04-15T05:02:30;99244.03;;;11.30;100.00
19510;BME280;9896;42.486;26.506;2023-04-15T05:04:56;99239.53;;;11.42;100.00
19510;BME280;9896;42.486;26.506;2023-04-15T05:07:22;99229.47;;;11.37;100.00
19510;BME280;9896;42.486;26.506;2023-04-15T05:09:47;99224.84;;;11.44;100.00
19510;BME280;9896;42.486;26.506;2023-04-15T05:12:13;99223.56;;;11.47;100.00
19510;BME280;9896;42.486;26.506;2023-04-15T05:14:40;99210.34;;;11.45;100.00
19510;BME280;9896;42.486;26.506;2023-04-15T05:17:06;99240.09;;;11.32;100.00
19510;BME280;9896;42.486;26.506;2023-04-15T05:19:31;99248.50;;;11.36;100.00
19510;BME280;9896;42.486;26.506;2023-04-15T05:21:57;99244.53;;;11.38;100.00
19510;BME280;9896;42.486;26.506;2023-04-15T05:24:22;99244.22;;;11.46;100.00
19510;BME280;9896;42.486;26.506;2023-04-15T05:26:48;99248.69;;;11.52;100.00
19510;BME280;9896;42.486;26.506;2023-04-15T05:29:13;99255.56;;;11.48;100.00
19510;BME280;9896;42.486;26.506;2023-04-15T05:31:39;99243.69;;;11.56;100.00
19510;BME280;9896;42.486;26.506;2023-04-15T05:34:04;99232.91;;;11.44;100.00
19510;BME280;9896;42.486;26.506;2023-04-15T05:36:31;99232.81;;;11.51;100.00
19510;BME280;9896;42.486;26.506;2023-04-15T05:38:57;99244.72;;;11.55;100.00
19510;BME280;9896;42.486;26.506;2023-04-15T05:41:22;99267.03;;;11.55;100.00
19510;BME280;9896;42.486;26.506;2023-04-15T05:43:48;99263.38;;;11.50;100.00
19510;BME280;9896;42.486;26.506;2023-04-15T05:46:13;99267.91;;;11.49;100.00
19510;BME280;9896;42.486;26.506;2023-04-15T05:48:39;99279.38;;;11.45;100.00
19510;BME280;9896;42.486;26.506;2023-04-15T05:51:05;99286.28;;;11.52;100.00
19510;BME280;9896;42.486;26.506;2023-04-15T05:53:30;99267.91;;;11.49;100.00
19510;BME280;9896;42.486;26.506;2023-04-15T05:55:56;99272.50;;;11.49;100.00
19510;BME280;9896;42.486;26.506;2023-04-15T05:58:22;99275.78;;;11.62;100.00
19510;BME280;9896;42.486;26.506;2023-04-15T06:00:47;99274.41;;;11.60;100.00
19510;BME280;9896;42.486;26.506;2023-04-15T06:03:13;99272.59;;;11.54;100.00
19510;BME280;9896;42.486;26.506;2023-04-15T06:05:38;99274.41;;;11.60;100.00
19510;BME280;9896;42.486;26.506;2023-04-15T06:08:05;99287.56;;;11.61;100.00
19510;BME280;9896;42.486;26.506;2023-04-15T06:10:30;99280.34;;;11.62;100.00
19510;BME280;9896;42.486;26.506;2023-04-15T06:13:01;99282.34;;;11.66;100.00
19510;BME280;9896;42.486;26.506;2023-04-15T06:15:27;99262.88;;;11.71;100.00
19510;BME280;9896;42.486;26.506;2023-04-15T06:17:52;99282.91;;;11.57;100.00
19510;BME280;9896;42.486;26.506;2023-04-15T06:20:18;99296.72;;;11.42;100.00
19510;BME280;9896;42.486;26.506;2023-04-15T06:22:43;99312.53;;;11.50;100.00
19510;BME280;9896;42.486;26.506;2023-04-15T06:25:09;99308.66;;;11.46;100.00
19510;BME280;9896;42.486;26.506;2023-04-15T06:27:35;99321.72;;;11.43;100.00
19510;BME280;9896;42.486;26.506;2023-04-15T06:30:00;99331.09;;;11.52;100.00
19510;BME280;9896;42.486;26.506;2023-04-15T06:32:26;99330.06;;;11.35;100.00
19510;BME280;9896;42.486;26.506;2023-04-15T06:34:51;99340.97;;;11.40;100.00
19510;BME280;9896;42.486;26.506;2023-04-15T06:37:17;99346.09;;;11.41;100.00
19510;BME280;9896;42.486;26.506;2023-04-15T06:39:42;99336.31;;;11.65;100.00
19510;BME280;9896;42.486;26.506;2023-04-15T06:42:09;99340.59;;;11.66;100.00
19510;BME280;9896;42.486;26.506;2023-04-15T06:44:35;99339.41;;;11.80;100.00
19510;BME280;9896;42.486;26.506;2023-04-15T06:47:01;99352.53;;;11.88;100.00
19510;BME280;9896;42.486;26.506;2023-04-15T06:49:27;99352.38;;;11.83;100.00
19510;BME280;9896;42.486;26.506;2023-04-15T06:51:52;99347.19;;;12.00;100.00
19510;BME280;9896;42.486;26.506;2023-04-15T06:54:18;99358.16;;;11.98;100.00
19510;BME280;9896;42.486;26.506;2023-04-15T06:56:43;99349.09;;;12.11;100.00
19510;BME280;9896;42.486;26.506;2023-04-15T06:59:09;99352.75;;;12.28;100.00
19510;BME280;9896;42.486;26.506;2023-04-15T07:01:34;99362.31;;;12.13;100.00
19510;BME280;9896;42.486;26.506;2023-04-15T07:04:00;99365.34;;;11.86;100.00
19510;BME280;9896;42.486;26.506;2023-04-15T07:06:26;99366.22;;;11.98;100.00
19510;BME280;9896;42.486;26.506;2023-04-15T07:08:52;99369.97;;;11.97;100.00
19510;BME280;9896;42.486;26.506;2023-04-15T07:11:18;99378.25;;;11.96;100.00
19510;BME280;9896;42.486;26.506;2023-04-15T07:13:45;99377.16;;;12.15;100.00
19510;BME280;9896;42.486;26.506;2023-04-15T07:16:10;99383.63;;;12.26;100.00
19510;BME280;9896;42.486;26.506;2023-04-15T07:18:36;99386.16;;;12.21;100.00
19510;BME280;9896;42.486;26.506;2023-04-15T07:21:01;99386.88;;;12.28;100.00
19510;BME280;9896;42.486;26.506;2023-04-15T07:23:27;99393.19;;;12.22;100.00
19510;BME280;9896;42.486;26.506;2023-04-15T07:25:52;99393.16;;;12.10;100.00
19510;BME280;9896;42.486;26.506;2023-04-15T07:28:18;99399.78;;;12.07;100.00
19510;BME280;9896;42.486;26.506;2023-04-15T07:30:43;99398.66;;;12.15;100.00
19510;BME280;9896;42.486;26.506;2023-04-15T07:33:09;99385.47;;;12.14;100.00
19510;BME280;9896;42.486;26.506;2023-04-15T07:35:35;99401.16;;;12.28;100.00
19510;BME280;9896;42.486;26.506;2023-04-15T07:38:00;99401.94;;;12.17;100.00
19510;BME280;9896;42.486;26.506;2023-04-15T07:40:26;99406.72;;;12.15;100.00
19510;BME280;9896;42.486;26.506;2023-04-15T07:42:52;99411.44;;;12.31;100.00
19510;BME280;9896;42.486;26.506;2023-04-15T07:45:17;99416.09;;;12.24;100.00
19510;BME280;9896;42.486;26.506;2023-04-15T07:47:43;99416.78;;;12.20;100.00
19510;BME280;9896;42.486;26.506;2023-04-15T07:50:09;99410.44;;;12.55;100.00
19510;BME280;9896;42.486;26.506;2023-04-15T07:52:35;99411.06;;;12.81;100.00
19510;BME280;9896;42.486;26.506;2023-04-15T07:55:07;99414.94;;;12.73;100.00
19510;BME280;9896;42.486;26.506;2023-04-15T07:57:36;99424.13;;;12.54;100.00
19510;BME280;9896;42.486;26.506;2023-04-15T08:00:03;99428.34;;;12.50;100.00
19510;BME280;9896;42.486;26.506;2023-04-15T08:02:31;99429.41;;;12.72;100.00
19510;BME280;9896;42.486;26.506;2023-04-15T08:04:57;99423.00;;;12.73;100.00
19510;BME280;9896;42.486;26.506;2023-04-15T08:07:24;99437.81;;;12.52;100.00
19510;BME280;9896;42.486;26.506;2023-04-15T08:09:49;99429.25;;;12.44;100.00
19510;BME280;9896;42.486;26.506;2023-04-15T08:12:15;99438.41;;;12.54;100.00
19510;BME280;9896;42.486;26.506;2023-04-15T08:14:41;99435.63;;;12.84;100.00
19510;BME280;9896;42.486;26.506;2023-04-15T08:17:06;99447.84;;;13.22;100.00
19510;BME280;9896;42.486;26.506;2023-04-15T08:19:32;99451.16;;;13.35;100.00
19510;BME280;9896;42.486;26.506;2023-04-15T08:21:57;99448.06;;;13.67;100.00
19510;BME280;9896;42.486;26.506;2023-04-15T08:24:23;99446.50;;;14.11;100.00
19510;BME280;9896;42.486;26.506;2023-04-15T08:26:51;99448.53;;;14.04;100.00
19510;BME280;9896;42.486;26.506;2023-04-15T08:29:16;99444.63;;;13.83;100.00
19510;BME280;9896;42.486;26.506;2023-04-15T08:31:42;99447.94;;;13.73;100.00
19510;BME280;9896;42.486;26.506;2023-04-15T08:34:07;99444.03;;;14.49;100.00
19510;BME280;9896;42.486;26.506;2023-04-15T08:36:33;99445.03;;;14.03;100.00
19510;BME280;9896;42.486;26.506;2023-04-15T08:38:59;99441.66;;;13.96;100.00
19510;BME280;9896;42.486;26.506;2023-04-15T08:41:34;99446.56;;;13.99;100.00
19510;BME280;9896;42.486;26.506;2023-04-15T08:44:04;99441.38;;;14.09;100.00
19510;BME280;9896;42.486;26.506;2023-04-15T08:46:31;99433.66;;;13.49;100.00
19510;BME280;9896;42.486;26.506;2023-04-15T08:49:02;99431.09;;;13.94;100.00
19510;BME280;9896;42.486;26.506;2023-04-15T08:51:29;99442.00;;;14.28;100.00
19510;BME280;9896;42.486;26.506;2023-04-15T08:53:55;99432.34;;;14.43;100.00
19510;BME280;9896;42.486;26.506;2023-04-15T08:56:23;99423.91;;;14.40;100.00
19510;BME280;9896;42.486;26.506;2023-04-15T08:58:49;99422.84;;;14.13;100.00
19510;BME280;9896;42.486;26.506;2023-04-15T09:01:15;99427.69;;;14.27;100.00
19510;BME280;9896;42.486;26.506;2023-04-15T09:03:41;99437.66;;;14.55;99.55
19510;BME280;9896;42.486;26.506;2023-04-15T09:06:07;99433.19;;;14.77;98.07
19510;BME280;9896;42.486;26.506;2023-04-15T09:08:33;99436.19;;;14.64;98.60
19510;BME280;9896;42.486;26.506;2023-04-15T09:11:02;99433.94;;;15.06;98.13
19510;BME280;9896;42.486;26.506;2023-04-15T09:13:28;99432.44;;;15.32;96.07
19510;BME280;9896;42.486;26.506;2023-04-15T09:15:54;99427.34;;;15.74;96.24
19510;BME280;9896;42.486;26.506;2023-04-15T09:18:33;99434.09;;;16.20;91.53
19510;BME280;9896;42.486;26.506;2023-04-15T09:21:09;99430.34;;;16.80;88.79
19510;BME280;9896;42.486;26.506;2023-04-15T09:23:36;99432.97;;;16.43;87.40
19510;BME280;9896;42.486;26.506;2023-04-15T09:26:03;99435.94;;;16.41;86.61
19510;BME280;9896;42.486;26.506;2023-04-15T09:28:29;99436.19;;;16.13;87.24
19510;BME280;9896;42.486;26.506;2023-04-15T09:30:59;99437.94;;;16.78;86.43
19510;BME280;9896;42.486;26.506;2023-04-15T09:33:26;99437.53;;;17.33;83.84
19510;BME280;9896;42.486;26.506;2023-04-15T09:35:57;99430.88;;;18.07;79.26
19510;BME280;9896;42.486;26.506;2023-04-15T09:38:23;99430.72;;;17.67;80.75
19510;BME280;9896;42.486;26.506;2023-04-15T09:40:49;99439.56;;;18.15;77.14
19510;BME280;9896;42.486;26.506;2023-04-15T09:43:14;99436.22;;;17.35;82.49
19510;BME280;9896;42.486;26.506;2023-04-15T09:45:49;99420.66;;;17.62;79.81
19510;BME280;9896;42.486;26.506;2023-04-15T09:48:17;99425.16;;;18.04;79.74
19510;BME280;9896;42.486;26.506;2023-04-15T09:50:43;99424.00;;;17.80;79.75
19510;BME280;9896;42.486;26.506;2023-04-15T09:53:16;99427.34;;;17.50;80.87
19510;BME280;9896;42.486;26.506;2023-04-15T09:55:49;99416.44;;;17.40;81.53
19510;BME280;9896;42.486;26.506;2023-04-15T09:58:26;99408.47;;;17.70;78.81
19510;BME280;9896;42.486;26.506;2023-04-15T10:00:53;99415.78;;;17.59;78.39
19510;BME280;9896;42.486;26.506;2023-04-15T10:03:26;99417.22;;;17.82;78.11
19510;BME280;9896;42.486;26.506;2023-04-15T10:05:53;99408.75;;;17.63;79.87
19510;BME280;9896;42.486;26.506;2023-04-15T10:08:23;99408.19;;;16.56;86.25
19510;BME280;9896;42.486;26.506;2023-04-15T10:10:49;99399.88;;;17.36;80.90
19510;BME280;9896;42.486;26.506;2023-04-15T10:13:18;99410.13;;;17.71;79.31
19510;BME280;9896;42.486;26.506;2023-04-15T10:15:57;99410.59;;;16.79;83.75
19510;BME280;9896;42.486;26.506;2023-04-15T10:18:25;99405.75;;;17.65;77.97
19510;BME280;9896;42.486;26.506;2023-04-15T10:20:52;99399.75;;;17.58;79.60
19510;BME280;9896;42.486;26.506;2023-04-15T10:23:18;99400.59;;;17.22;78.86
19510;BME280;9896;42.486;26.506;2023-04-15T10:25:45;99397.72;;;17.38;80.14
19510;BME280;9896;42.486;26.506;2023-04-15T10:28:11;99403.97;;;17.91;76.77
19510;BME280;9896;42.486;26.506;2023-04-15T10:30:37;99390.13;;;17.87;76.69
19510;BME280;9896;42.486;26.506;2023-04-15T10:33:04;99379.75;;;17.74;77.62
19510;BME280;9896;42.486;26.506;2023-04-15T10:35:31;99385.66;;;17.61;77.71
19510;BME280;9896;42.486;26.506;2023-04-15T10:37:57;99378.81;;;18.16;76.78
19510;BME280;9896;42.486;26.506;2023-04-15T10:40:30;99385.38;;;18.55;74.94
19510;BME280;9896;42.486;26.506;2023-04-15T10:43:00;99385.75;;;17.86;78.55
19510;BME280;9896;42.486;26.506;2023-04-15T10:45:36;99371.78;;;18.25;76.90
19510;BME280;9896;42.486;26.506;2023-04-15T10:48:04;99376.34;;;19.25;73.00
19510;BME280;9896;42.486;26.506;2023-04-15T10:50:31;99371.19;;;19.44;70.47
19510;BME280;9896;42.486;26.506;2023-04-15T10:52:57;99353.59;;;18.71;71.55
19510;BME280;9896;42.486;26.506;2023-04-15T10:55:25;99371.28;;;18.68;72.36
19510;BME280;9896;42.486;26.506;2023-04-15T10:57:52;99367.44;;;18.39;72.21
19510;BME280;9896;42.486;26.506;2023-04-15T11:00:19;99365.56;;;18.95;68.98
19510;BME280;9896;42.486;26.506;2023-04-15T11:02:54;99372.44;;;19.67;66.71
19510;BME280;9896;42.486;26.506;2023-04-15T11:05:22;99380.16;;;19.39;66.10
19510;BME280;9896;42.486;26.506;2023-04-15T11:08:11;99368.09;;;19.71;63.20
19510;BME280;9896;42.486;26.506;2023-04-15T11:13:04;99371.13;;;19.54;63.96
19510;BME280;9896;42.486;26.506;2023-04-15T11:15:35;99375.31;;;19.11;65.45
19510;BME280;9896;42.486;26.506;2023-04-15T11:18:17;99370.13;;;19.99;62.20
19510;BME280;9896;42.486;26.506;2023-04-15T11:20:46;99370.38;;;20.03;61.69
19510;BME280;9896;42.486;26.506;2023-04-15T11:23:17;99359.94;;;19.66;62.69
19510;BME280;9896;42.486;26.506;2023-04-15T11:25:44;99371.81;;;19.85;62.86
19510;BME280;9896;42.486;26.506;2023-04-15T11:28:11;99365.47;;;19.30;65.49
19510;BME280;9896;42.486;26.506;2023-04-15T11:30:37;99361.09;;;19.55;64.06
19510;BME280;9896;42.486;26.506;2023-04-15T11:33:05;99349.44;;;19.44;65.91
19510;BME280;9896;42.486;26.506;2023-04-15T11:35:31;99355.16;;;19.27;65.91
19510;BME280;9896;42.486;26.506;2023-04-15T11:37:57;99369.09;;;18.80;68.86
19510;BME280;9896;42.486;26.506;2023-04-15T11:40:28;99360.81;;;19.51;66.23
19510;BME280;9896;42.486;26.506;2023-04-15T11:45:54;99354.59;;;20.05;64.66
19510;BME280;9896;42.486;26.506;2023-04-15T11:48:46;99355.06;;;20.17;63.36
19510;BME280;9896;42.486;26.506;2023-04-15T11:51:13;99348.66;;;19.92;64.72
19510;BME280;9896;42.486;26.506;2023-04-15T11:53:47;99345.94;;;20.36;64.26
19510;BME280;9896;42.486;26.506;2023-04-15T11:56:31;99337.09;;;20.11;64.63
19510;BME280;9896;42.486;26.506;2023-04-15T11:58:57;99338.53;;;19.98;65.79
19510;BME280;9896;42.486;26.506;2023-04-15T12:01:37;99328.97;;;20.50;63.21
19510;BME280;9896;42.486;26.506;2023-04-15T12:04:15;99334.44;;;20.45;62.78
19510;BME280;9896;42.486;26.506;2023-04-15T12:06:44;99326.06;;;20.36;63.08
19510;BME280;9896;42.486;26.506;2023-04-15T12:09:14;99324.81;;;20.86;62.78
19510;BME280;9896;42.486;26.506;2023-04-15T12:11:51;99327.56;;;20.52;61.81
19510;BME280;9896;42.486;26.506;2023-04-15T12:14:30;99326.66;;;20.33;64.31
19510;BME280;9896;42.486;26.506;2023-04-15T12:17:04;99319.22;;;20.00;65.21
19510;BME280;9896;42.486;26.506;2023-04-15T12:19:34;99316.84;;;20.32;64.87
19510;BME280;9896;42.486;26.506;2023-04-15T12:22:05;99304.38;;;20.21;66.33
19510;BME280;9896;42.486;26.506;2023-04-15T12:24:32;99313.22;;;20.03;66.53
19510;BME280;9896;42.486;26.506;2023-04-15T12:27:02;99304.56;;;20.68;63.15
19510;BME280;9896;42.486;26.506;2023-04-15T12:29:29;99302.22;;;20.85;61.71
19510;BME280;9896;42.486;26.506;2023-04-15T12:32:07;99304.94;;;21.14;59.76
19510;BME280;9896;42.486;26.506;2023-04-15T12:34:34;99309.97;;;20.39;63.15
19510;BME280;9896;42.486;26.506;2023-04-15T12:37:02;99294.38;;;19.72;65.67
19510;BME280;9896;42.486;26.506;2023-04-15T12:39:30;99299.69;;;19.92;65.75
19510;BME280;9896;42.486;26.506;2023-04-15T12:41:57;99299.13;;;19.95;66.19
19510;BME280;9896;42.486;26.506;2023-04-15T12:44:22;99299.38;;;19.45;66.90
19510;BME280;9896;42.486;26.506;2023-04-15T12:46:49;99300.09;;;19.66;68.47
19510;BME280;9896;42.486;26.506;2023-04-15T12:49:14;99299.16;;;19.85;68.95
19510;BME280;9896;42.486;26.506;2023-04-15T12:51:41;99299.50;;;20.18;67.33
19510;BME280;9896;42.486;26.506;2023-04-15T12:54:06;99298.50;;;20.42;63.80
19510;BME280;9896;42.486;26.506;2023-04-15T12:56:32;99286.47;;;20.49;64.17